Nearby METAR Reports

 

KSJC - San Jose, California, USA
Distance from station: NE 14km
Updated: 25/02/2024 09:53
Few Clouds
Few Clouds
 Wind from SSE
Wind: SSE 11 km/h
Temperature: 16°C
Dew Point: 9°C
Humidity: 63%
Barometer: 1018.6 hPa
Clouds: Few Clouds
Visibility: 16 km
Cloud details: Few Clouds 4572 m
2024/02/25 17:53 KSJC 251753Z 15006KT 10SM FEW150 16/09 A3008 RMK AO2 SLP184 T01560089 10156 20089 51012
KNUQ - Moffett Nas/Mtn, California, USA
Distance from station: N 14km
Updated: 25/02/2024 09:55
Clear
Clear
 Wind from NNE
Wind: NNE 6 km/h
Temperature: 15°C
Dew Point: 9°C
Humidity: 68%
Barometer: 1018.6 hPa
Clouds: Clear
Visibility: 16 km
2024/02/25 17:55 KNUQ 251755Z AUTO 02003KT 10SM CLR 15/09 A3008 RMK AO2
 
KPAO - Palo Alto, California, USA
Distance from station: NNW 23km
Updated: 25/02/2024 09:47
Few Clouds
Few Clouds
 Wind from calm
Wind: Calm
Temperature: 13°C
Dew Point: 8°C
Humidity: 72%
Barometer: 1019 hPa
Clouds: Few Clouds
Visibility: 16 km
Cloud details: Few Clouds 6096 m
2024/02/25 17:47 KPAO 251747Z 00000KT 10SM FEW200 13/08 A3009
KRHV - San Jose/Reid, California, USA
Distance from station: ENE 19km
Updated: 25/02/2024 10:47
Clear
Clear
 Wind from calm
Wind: Calm
Temperature: 14°C
Dew Point: 9°C
Humidity: 72%
Barometer: 1018.6 hPa
Clouds: Clear
Visibility: 16 km
2024/02/25 18:47 KRHV 251847Z 00000KT 10SM SKC 14/09 A3008
 
KOAK - Oakland, California, USA
Distance from station: NNW 50km
Updated: 25/02/2024 09:53
Partly cloudy
Partly cloudy
 Wind from calm
Wind: Calm
Temperature: 14°C
Dew Point: 10°C
Humidity: 77%
Barometer: 1018.6 hPa
Clouds: Partly cloudy
Visibility: 16 km
Cloud details: Few Clouds 305 m
Few Clouds 4572 m
Partly cloudy 6096 m
2024/02/25 17:53 KOAK 251753Z 00000KT 10SM FEW010 FEW150 SCT200 14/10 A3008 RMK AO2 SLP187 T01440100 10144 20078 51013
KSQL - San Carlos Airpo, California, USA
Distance from station: NW 34km
Updated: 25/02/2024 09:50
Clear
Clear
 Wind from NE
Wind: NE 11 km/h
Temperature: 14°C
Dew Point: 11°C
Humidity: 82%
Barometer: 1019 hPa
Clouds: Clear
Visibility: 16 km
2024/02/25 17:50 KSQL 251750Z 05006KT 10SM CLR 14/11 A3009
 
KSFO - San Francisco, California, USA
Distance from station: NW 49km
Updated: 25/02/2024 09:56
Partly cloudy
Partly cloudy
 Wind from NE
Wind: NE 7 km/h
Temperature: 15°C
Dew Point: 10°C
Humidity: 72%
Barometer: 1018.6 hPa
Clouds: Partly cloudy
Visibility: 16 km
Cloud details: Partly cloudy 6096 m
2024/02/25 17:56 KSFO 251756Z 04004KT 10SM SCT200 15/10 A3008 RMK AO2 SLP184 T01500100 10150 20094 51011 $
KE16 - San Martin, California, USA
Distance from station: ESE 43km
Updated: 25/02/2024 09:55
Clear
Clear
 Wind from SSE
Wind: SSE 9 km/h
Temperature: 12°C
Dew Point: 10°C
Humidity: 88%
Barometer: 1019.6 hPa
Clouds: Clear
Visibility: 16 km
2024/02/25 17:55 KE16 251755Z AUTO 16005KT 10SM CLR 12/10 A3011 RMK AO2 PWINO PNO
 
KWVI - Watsonville, California, USA
Distance from station: SSE 44km
Updated: 25/02/2024 09:53
Few Clouds
Few Clouds
 Wind from E
Wind: E 7 km/h
Barometer: 1019 hPa
Clouds: Few Clouds
Visibility: 16 km
Cloud details: Few Clouds 427 m
2024/02/25 17:53 KWVI 251753Z AUTO 09004KT 10SM FEW014 A3009 RMK AO2 SLPNO 51010 $
KHAF - Half Moon Bay, California, USA
Distance from station: WNW 50km
Updated: 25/02/2024 09:55
Mist, Mostly cloudy
Mist, Mostly cloudy
 Wind from SSE
Wind: SSE 15 km/h
Temperature: 14°C
Dew Point: 12°C
Humidity: 88%
Barometer: 1019 hPa
Summary: Mist
Clouds: Mostly cloudy
Visibility: 8 km
Cloud details: Mostly cloudy 488 m
2024/02/25 17:55 KHAF 251755Z AUTO 15008KT 5SM BR BKN016 14/12 A3009 RMK AO2
 
KHWD - Hayward, California, USA
Distance from station: N 44km
Updated: 25/02/2024 09:54
Clear
Clear
 Wind from calm
Wind: Calm
Temperature: 16°C
Dew Point: 9°C
Humidity: 63%
Barometer: 1018.3 hPa
Clouds: Clear
Visibility: 16 km
2024/02/25 17:54 KHWD 251754Z 00000KT 10SM CLR 16/09 A3007 RMK AO2 SLP194 T01560094 10156 20089 51011
KLVK - Livermore, California, USA
Distance from station: NNE 51km
Updated: 25/02/2024 09:53
Clear
Clear
 Wind from calm
Wind: Calm
Temperature: 14°C
Dew Point: 7°C
Humidity: 63%
Barometer: 1018.3 hPa
Clouds: Clear
Visibility: 16 km
2024/02/25 17:53 KLVK 251753Z 00000KT 10SM CLR 14/07 A3007 RMK AO2 SLP182 T01390067 10139 20044 51010